KBLV

Scott AFB / Midamerica Airport

Belleville, Illinois, USA
METAR KBLV 230256Z AUTO 00000KT 10SM CLR 22/20 A3003 RMK AO2 SLPNO T02200197 53014 $
Observed Flight Rules
May-23 @ 02:56 UTC (27 minutes ago) Visual Flight Rules
Visibility Clouds
10 miles
  • Clear skies
Temperatures Readings
Current 22°C / 72°F
Dewpoint 20°C / 68°F
Humidity 88%
Altimeter 30.03" Hg
Pressure 1017 hPa
Elevation 138
METAR KBLV 230256Z AUTO 00000KT 10SM CLR 22/20 A3003 RMK AO2 SLPNO T02200197 53014 $
Observed Flight Rules
May-23 @ 02:56 UTC
(27 minutes ago)
VFR
Clouds
  • Clear skies
Temperature Dewpoint
22°C / 72°F 20°C / 68°F
Humidity Altimeter Pressure
88% 30.03" Hg 1017 hPa